Archival Weather

Snohomish County (Paine Fld)

Everett, Washington (KPAE)

Report from: Sunday, November 5, 2023 9:53 AM PST
Current time: Monday, June 24, 2024 2:47 AM PDT

Current weather – Weather history – Daily summaries
Weather forecast

Temperature11.7°C (53.1°F)
Dew point7.2°C (45.0°F)
Winds 9 kts (4.6 m/s, 10.4 mph) South-Southeast (150°)
Visibility10 mi. (16.1 km)
Clouds Sky clear
Altimeter29.85 in.Hg (1011 mB)
Precip last 3 hours0.01 in. (0 mm)
Relative humidity74 %
Density altitude-167 ft. (-51 m)
Sea-level pressure101.1 kPa (1011 mB, 29.85 in.Hg)
Max temp last 6 hours11.7°C (53.1°F)
Min temp last 6 hours10.6°C (51.1°F)
Remarks Automated weather observing station with precipitation discriminator
Pressure falling more quickly
Flight conditions Visual Meteorological Conditions
Raw dataKPAE 051753Z 15009KT 10SM CLR 12/07 A2985 RMK AO2 SLP109 60001 T01170072 10117 20106 58000
An error has occurred. This application may no longer respond until reloaded. Reload 🗙